Time;durP1;ratioP1;P1;durP2;ratioP2;P2;SDS_P1;SDS_P2;PMS_P1;PMS_P2;Temp;Humidity;BMP_temperature;BMP_pressure;BME280_temperature;BME280_humidity;BME280_pressure;Samples;Min_cycle;Max_cycle;Signal;HPM_P1;HPM_P2
2021/08/24 00:01:43;;;;;;;8.77;5.63;;;12.40;99.90;;;11.22;99.69;98593.47;6172153;23;20460;-81
2021/08/24 00:04:33;;;;;;;7.03;6.43;;;12.40;99.90;;;11.20;99.86;98584.72;6159663;23;20423;-79
2021/08/24 00:07:20;;;;;;;5.90;5.30;;;12.40;99.90;;;11.26;99.67;98585.78;6157956;23;20482;-81
2021/08/24 00:10:10;;;;;;;7.43;6.50;;;12.40;99.90;;;11.27;99.09;98569.31;6168165;23;20431;-81
2021/08/24 00:13:01;;;;;;;6.40;5.80;;;12.50;99.90;;;11.17;98.95;98558.91;6157582;23;20428;-83
2021/08/24 00:15:50;;;;;;;7.53;5.90;;;12.50;99.40;;;11.32;99.67;98580.38;6158371;23;20495;-81
2021/08/24 00:18:38;;;;;;;6.37;5.77;;;12.50;99.90;;;11.26;98.58;98574.94;6159827;23;20421;-82
2021/08/24 00:21:25;;;;;;;7.00;6.40;;;12.50;99.60;;;11.34;98.84;98585.56;6165910;23;20498;-82
2021/08/24 00:24:13;;;;;;;9.83;5.63;;;12.50;99.90;;;11.25;99.94;98587.63;6154720;23;20448;-80
2021/08/24 00:27:01;;;;;;;9.70;6.50;;;12.40;99.90;;;11.28;99.08;98580.97;6155011;23;20463;-80
2021/08/24 00:29:50;;;;;;;7.30;6.60;;;12.40;99.90;;;11.12;99.87;98560.56;6158528;23;20479;-80
2021/08/24 00:32:37;;;;;;;6.97;6.33;;;12.40;99.90;;;11.33;98.85;98584.75;6158951;23;20388;-82
2021/08/24 00:35:25;;;;;;;6.50;5.90;;;12.50;99.60;;;11.26;99.40;98583.88;6159188;23;20551;-81
2021/08/24 00:38:16;;;;;;;7.73;6.53;;;12.40;99.80;;;11.24;99.41;98564.31;6157071;23;20410;-81
2021/08/24 00:41:05;;;;;;;7.00;6.40;;;12.40;99.90;;;11.25;99.60;98570.59;6168885;23;20456;-81
2021/08/24 00:43:53;;;;;;;6.97;6.37;;;12.40;99.90;;;11.34;99.22;98575.59;6162324;23;20471;-80
2021/08/24 00:46:46;;;;;;;7.60;6.90;;;12.50;99.80;;;11.35;98.63;98579.09;6168011;23;20396;-83
2021/08/24 00:49:35;;;;;;;7.13;6.57;;;12.50;99.10;;;11.34;98.76;98572.88;6181525;23;20459;-84
2021/08/24 00:52:23;;;;;;;7.40;6.70;;;12.50;98.90;;;11.31;98.80;98575.16;6156356;23;20456;-84
2021/08/24 00:55:12;;;;;;;8.33;7.07;;;12.50;99.00;;;11.32;98.23;98590.34;6168612;23;20432;-84
2021/08/24 00:58:04;;;;;;;7.93;7.23;;;12.50;98.50;;;11.25;98.46;98582.22;6138504;23;20400;-80
2021/08/24 01:00:52;;;;;;;7.67;7.07;;;12.50;98.30;;;11.25;98.99;98576.81;6157269;23;20479;-80
2021/08/24 01:03:44;;;;;;;7.67;6.90;;;12.50;99.70;;;11.30;98.42;98568.94;6157425;23;20945;-80
2021/08/24 01:06:38;;;;;;;8.20;7.50;;;12.40;99.80;;;11.28;98.63;98570.97;6158358;23;20392;-81
2021/08/24 01:09:37;;;;;;;7.20;6.57;;;12.50;98.70;;;11.15;98.99;98554.78;6165524;23;20455;-80
2021/08/24 01:12:37;;;;;;;7.80;7.00;;;12.40;99.70;;;11.22;99.11;98571.81;6166300;23;20491;-81
2021/08/24 01:15:36;;;;;;;7.93;7.13;;;12.40;99.90;;;11.08;99.05;98543.94;6156973;23;20475;-81
2021/08/24 01:18:35;;;;;;;7.87;7.17;;;12.40;99.90;;;11.23;99.50;98567.25;6157854;23;20396;-80
2021/08/24 01:21:56;;;;;;;8.20;7.50;;;12.40;99.90;;;11.14;99.54;98569.28;6169348;23;20468;-81
2021/08/24 01:24:50;;;;;;;8.13;7.43;;;12.30;99.90;;;11.05;99.55;98566.81;6160384;23;20422;-80
2021/08/24 01:27:44;;;;;;;8.53;7.73;;;12.30;99.90;;;11.10;99.48;98568.06;6158497;23;20403;-80
2021/08/24 01:30:59;;;;;;;9.50;8.63;;;12.30;99.80;;;11.04;98.83;98540.81;6171456;23;20488;-80
2021/08/24 01:33:59;;;;;;;10.60;7.90;;;12.30;99.90;;;11.10;98.25;98546.41;6176578;23;20392;-81
2021/08/24 01:36:53;;;;;;;8.60;7.80;;;12.40;99.10;;;11.23;98.20;98551.03;6176290;23;20423;-79
2021/08/24 01:39:47;;;;;;;8.90;8.10;;;12.40;98.50;;;11.20;98.42;98563.91;6163029;23;20431;-81
2021/08/24 01:42:36;;;;;;;8.90;8.13;;;12.30;99.00;;;11.23;98.34;98583.50;6160455;23;20411;-83
2021/08/24 01:45:30;;;;;;;8.67;7.77;;;12.50;99.00;;;11.18;98.97;98581.41;6170648;23;20405;-83
2021/08/24 01:48:24;;;;;;;10.17;9.27;;;12.40;99.20;;;11.14;98.72;98569.28;6170465;23;20408;-83
2021/08/24 01:51:19;;;;;;;10.13;8.83;;;12.30;98.90;;;11.15;98.96;98576.41;6163286;23;20395;-79
2021/08/24 01:54:17;;;;;;;8.90;8.10;;;12.40;99.40;;;11.16;98.86;98573.47;6158186;23;20396;-80
2021/08/24 01:57:09;;;;;;;10.00;9.10;;;12.30;99.40;;;11.15;99.38;98565.59;6162978;23;20392;-81
2021/08/24 02:00:03;;;;;;;9.43;8.50;;;12.30;99.70;;;11.15;99.13;98573.69;6173099;23;21097;-82
2021/08/24 02:02:59;;;;;;;9.83;8.50;;;12.30;99.70;;;11.11;99.13;98575.97;6162746;23;20430;-82
2021/08/24 02:05:50;;;;;;;10.27;9.07;;;12.30;99.40;;;11.17;99.03;98575.13;6162619;23;20404;-82
2021/08/24 02:08:45;;;;;;;8.63;7.93;;;12.30;99.90;;;11.02;99.22;98561.81;6174628;23;20401;-81
2021/08/24 02:11:36;;;;;;;10.43;9.53;;;12.30;99.50;;;11.07;99.54;98571.16;6172721;23;20393;-83
2021/08/24 02:14:26;;;;;;;9.77;8.87;;;12.30;99.90;;;11.14;98.61;98580.13;6174061;23;20395;-81
2021/08/24 02:17:17;;;;;;;10.00;9.10;;;12.30;99.00;;;11.16;98.78;98576.19;6185737;23;20471;-81
2021/08/24 02:20:14;;;;;;;10.03;8.83;;;12.30;99.30;;;11.05;99.19;98576.78;6175788;23;20400;-83
2021/08/24 02:23:10;;;;;;;9.90;9.00;;;12.30;99.70;;;11.14;98.94;98582.81;6174309;23;20748;-83
2021/08/24 02:26:05;;;;;;;8.93;8.00;;;12.30;99.90;;;11.06;98.74;98562.22;6173977;23;20468;-84
2021/08/24 02:28:58;;;;;;;13.53;9.40;;;12.30;98.70;;;11.17;98.60;98577.03;6171945;23;20405;-82
2021/08/24 02:31:54;;;;;;;10.53;9.60;;;12.30;98.80;;;11.04;98.51;98565.13;6165136;23;20471;-81
2021/08/24 02:34:59;;;;;;;10.60;9.50;;;12.30;98.90;;;11.19;98.40;98581.16;6164723;23;20463;-80
2021/08/24 02:37:51;;;;;;;10.57;9.47;;;12.30;99.60;;;11.21;98.81;98580.97;6167152;23;20395;-80
2021/08/24 02:40:47;;;;;;;10.30;9.30;;;12.40;98.30;;;11.06;99.07;98573.03;6166810;23;20403;-82
2021/08/24 02:43:43;;;;;;;10.07;9.17;;;12.30;98.90;;;11.19;98.85;98577.66;6175258;23;20435;-80
2021/08/24 02:49:41;;;;;;;10.13;9.13;;;12.30;99.00;;;11.08;99.59;98576.38;6168889;23;20401;-80
2021/08/24 02:52:29;;;;;;;10.80;9.73;;;12.30;99.30;;;11.13;99.02;98573.88;6177442;23;20452;-77
2021/08/24 02:55:17;;;;;;;11.10;10.20;;;12.30;99.60;;;11.22;98.53;98577.22;6176910;23;20439;-79
2021/08/24 02:58:05;;;;;;;8.87;8.03;;;12.30;98.80;;;11.21;98.02;98583.69;6160218;23;20487;-79
2021/08/24 03:00:52;;;;;;;10.30;9.23;;;12.40;97.70;;;11.22;98.32;98585.34;6158797;23;20460;-81
2021/08/24 03:03:41;;;;;;;9.80;8.80;;;12.30;98.10;;;11.16;98.30;98578.06;6155469;23;20418;-77
2021/08/24 03:06:31;;;;;;;10.50;9.03;;;12.30;98.00;;;11.16;97.62;98572.66;6155909;23;20399;-81
2021/08/24 03:09:21;;;;;;;9.60;8.80;;;12.30;97.40;;;11.24;98.06;98569.75;6157270;23;20466;-79
2021/08/24 03:12:20;;;;;;;9.33;8.33;;;12.40;97.80;;;11.30;96.85;98587.88;6155795;23;20388;-83
2021/08/24 03:15:17;;;;;;;9.93;8.93;;;12.40;96.60;;;11.22;97.65;98571.81;6156016;23;20420;-80
2021/08/24 03:18:10;;;;;;;9.43;8.50;;;12.40;96.90;;;11.09;98.02;98574.50;6159902;23;20493;-79
2021/08/24 03:21:03;;;;;;;9.33;8.43;;;12.30;97.40;;;11.13;97.65;98567.63;6155955;23;20393;-80
2021/08/24 03:23:52;;;;;;;9.73;8.83;;;12.40;97.30;;;11.27;97.04;98577.44;6156061;23;20929;-82
2021/08/24 03:26:45;;;;;;;10.23;8.03;;;12.40;96.40;;;11.21;97.97;98575.56;6156735;23;20487;-83
2021/08/24 03:29:33;;;;;;;9.10;8.23;;;12.40;97.20;;;11.27;97.01;98579.31;6154314;23;20920;-80
2021/08/24 03:32:20;;;;;;;9.20;8.30;;;12.40;96.70;;;11.27;96.63;98579.31;6169370;23;20451;-80
2021/08/24 03:35:10;;;;;;;11.93;9.30;;;12.40;96.10;;;11.16;96.95;98565.34;6155257;23;20487;-81
2021/08/24 03:37:58;;;;;;;9.03;8.10;;;12.40;95.90;;;11.20;97.03;98569.31;6154711;23;20397;-80
2021/08/24 03:40:47;;;;;;;8.90;7.73;;;12.40;96.20;;;11.17;96.45;98552.69;6155031;23;20515;-79
2021/08/24 03:43:35;;;;;;;7.67;6.97;;;12.30;96.00;;;11.17;96.82;98568.91;6157379;23;20392;-79
2021/08/24 03:46:23;;;;;;;9.00;8.20;;;12.30;96.00;;;11.22;97.25;98560.16;6156895;23;20972;-79
2021/08/24 03:49:10;;;;;;;8.90;8.00;;;12.40;96.40;;;11.04;97.75;98542.66;6161202;23;20392;-81
2021/08/24 03:51:57;;;;;;;10.17;8.23;;;12.30;96.90;;;11.15;97.96;98560.19;6170431;23;20782;-79
2021/08/24 03:54:47;;;;;;;10.13;8.03;;;12.30;97.40;;;11.03;97.04;98547.25;6172369;23;20395;-79
2021/08/24 03:57:35;;;;;;;11.70;9.07;;;12.30;96.70;;;11.11;97.67;98567.00;6183002;23;20389;-79
2021/08/24 04:00:23;;;;;;;9.90;8.97;;;12.30;98.00;;;11.18;97.20;98576.81;6168751;23;20943;-79
2021/08/24 04:03:10;;;;;;;8.60;7.80;;;12.30;96.80;;;10.99;97.34;98537.06;6159644;23;20487;-79
2021/08/24 04:06:02;;;;;;;9.33;7.70;;;12.30;96.60;;;11.10;97.21;98568.91;6156961;23;20396;-81
2021/08/24 04:08:49;;;;;;;10.60;8.60;;;12.30;96.40;;;11.18;97.14;98586.81;6161245;23;20400;-81
2021/08/24 04:11:38;;;;;;;9.57;7.63;;;12.30;96.70;;;11.20;97.30;98595.53;6159741;23;20423;-79
2021/08/24 04:14:25;;;;;;;9.10;7.70;;;12.30;96.30;;;11.08;97.65;98580.94;6173365;23;20389;-81
2021/08/24 04:17:12;;;;;;;8.07;7.30;;;12.30;96.60;;;11.20;96.82;98577.44;6167441;23;20452;-82
2021/08/24 04:20:00;;;;;;;8.17;7.47;;;12.30;96.60;;;11.21;96.48;98575.56;6172753;23;20416;-80
2021/08/24 04:22:51;;;;;;;7.50;6.80;;;12.40;96.20;;;11.24;96.40;98593.25;6172606;23;20421;-80
2021/08/24 04:25:38;;;;;;;8.10;7.30;;;12.40;95.80;;;11.28;96.02;98589.09;6162725;23;20400;-79
2021/08/24 04:28:27;;;;;;;7.50;6.90;;;12.40;94.70;;;11.23;95.81;98600.53;6159677;23;20404;-79
2021/08/24 04:31:18;;;;;;;7.87;7.07;;;12.40;94.90;;;11.24;96.02;98594.09;6159685;23;20448;-79
2021/08/24 04:34:05;;;;;;;8.07;7.40;;;12.40;95.30;;;11.01;96.40;98559.31;6159940;23;20424;-79
2021/08/24 04:36:53;;;;;;;7.70;7.00;;;12.40;95.10;;;11.19;95.87;98599.28;6159364;23;20456;-79
2021/08/24 04:39:41;;;;;;;9.13;6.87;;;12.40;95.00;;;11.27;95.76;98603.66;6167748;23;20392;-79
2021/08/24 04:42:28;;;;;;;11.23;6.40;;;12.40;95.20;;;11.29;95.75;98597.00;6170418;23;20424;-79
2021/08/24 04:45:19;;;;;;;6.60;6.10;;;12.40;94.80;;;11.31;95.14;98603.06;6156948;23;20447;-79
2021/08/24 04:48:07;;;;;;;6.70;6.00;;;12.50;94.50;;;11.25;95.49;98609.28;6166986;23;20511;-78
2021/08/24 04:50:55;;;;;;;6.83;6.17;;;12.40;94.40;;;11.23;95.30;98622.16;6157344;23;20404;-80
2021/08/24 04:53:42;;;;;;;8.07;7.10;;;12.40;94.40;;;11.32;95.15;98622.81;6160272;23;20484;-79
2021/08/24 04:56:30;;;;;;;7.40;6.57;;;12.50;94.80;;;11.43;95.38;98618.66;6159411;23;20435;-81
2021/08/24 04:59:17;;;;;;;6.70;6.03;;;12.50;94.80;;;11.40;94.18;98613.66;6169877;23;20418;-79
2021/08/24 05:02:06;;;;;;;7.80;7.00;;;12.60;93.30;;;11.34;94.44;98616.16;6173048;23;20424;-79
2021/08/24 05:04:54;;;;;;;7.23;6.47;;;12.50;93.70;;;11.51;94.32;98621.19;6166665;23;20939;-80
2021/08/24 05:07:41;;;;;;;6.80;6.20;;;12.60;93.40;;;11.59;93.95;98626.38;6165590;23;20460;-80
2021/08/24 05:10:29;;;;;;;7.50;6.43;;;12.70;93.20;;;11.57;94.32;98627.63;6164446;23;20416;-78
2021/08/24 05:13:17;;;;;;;6.80;6.20;;;12.70;93.20;;;11.54;94.31;98625.34;6163325;23;20483;-79
2021/08/24 05:16:08;;;;;;;6.27;5.60;;;12.70;93.40;;;11.71;93.02;98628.47;6167214;23;20510;-81
2021/08/24 05:18:56;;;;;;;7.73;6.93;;;12.80;92.50;;;11.59;93.34;98630.97;6159800;23;20873;-82
2021/08/24 05:21:46;;;;;;;8.97;7.90;;;12.80;92.70;;;11.69;93.39;98630.56;6172853;23;20963;-78
2021/08/24 05:24:35;;;;;;;7.13;6.43;;;12.80;92.50;;;12.03;91.81;98634.09;6171087;23;20413;-80
2021/08/24 05:27:22;;;;;;;7.73;5.83;;;13.10;91.60;;;12.18;90.95;98634.72;6157040;23;20401;-78
2021/08/24 05:30:14;;;;;;;5.70;5.20;;;13.30;90.70;;;12.16;90.55;98631.38;6158024;23;20424;-79
2021/08/24 05:33:01;;;;;;;6.40;5.80;;;13.30;90.20;;;12.09;90.87;98630.56;6157732;23;20400;-79
2021/08/24 05:35:50;;;;;;;6.30;5.33;;;13.30;90.50;;;12.16;90.48;98642.22;6156788;23;20420;-79
2021/08/24 05:38:38;;;;;;;6.60;6.00;;;13.30;90.20;;;12.13;90.63;98642.66;6155698;23;20396;-79
2021/08/24 05:41:25;;;;;;;5.93;5.43;;;13.30;90.20;;;12.09;90.61;98645.97;6156145;23;20405;-78
2021/08/24 05:44:13;;;;;;;6.13;5.47;;;13.20;90.40;;;12.24;89.96;98640.34;6156672;23;20397;-79
2021/08/24 05:47:00;;;;;;;6.27;5.00;;;13.40;90.20;;;12.42;88.48;98632.38;6153699;23;20399;-78
2021/08/24 05:49:47;;;;;;;5.70;5.03;;;13.50;88.90;;;12.50;87.41;98646.72;6161291;23;20809;-78
2021/08/24 05:52:36;;;;;;;5.10;4.70;;;13.60;87.40;;;12.49;87.79;98645.06;6155657;23;20424;-79
2021/08/24 05:55:23;;;;;;;5.40;4.87;;;13.60;87.10;;;12.56;87.63;98640.47;6162140;23;20420;-78
2021/08/24 05:58:11;;;;;;;5.03;4.53;;;13.60;87.00;;;12.54;87.48;98637.16;6143776;23;20423;-80
2021/08/24 06:00:58;;;;;;;5.97;5.20;;;13.70;86.90;;;12.59;87.54;98653.59;6156925;23;20700;-79
2021/08/24 06:03:46;;;;;;;5.63;5.13;;;13.70;87.00;;;12.61;87.13;98651.50;6157626;23;20389;-79
2021/08/24 06:06:37;;;;;;;6.23;5.63;;;13.80;86.40;;;12.44;87.19;98662.00;6170345;23;20915;-79
2021/08/24 06:09:25;;;;;;;5.83;5.33;;;13.60;86.30;;;12.58;87.42;98669.00;6161208;23;20396;-81
2021/08/24 06:12:13;;;;;;;6.67;5.90;;;13.70;86.70;;;12.68;87.23;98655.03;6163698;23;20469;-80
2021/08/24 06:15:01;;;;;;;7.17;6.33;;;13.80;86.60;;;12.80;86.90;98651.66;6179786;23;20459;-80
2021/08/24 06:17:49;;;;;;;6.20;5.60;;;13.90;86.30;;;12.87;86.59;98657.88;6176938;23;20490;-79
2021/08/24 06:20:37;;;;;;;6.10;5.50;;;13.90;85.80;;;12.86;86.24;98650.81;6169419;23;20389;-79
2021/08/24 06:23:25;;;;;;;5.93;5.40;;;14.00;85.70;;;12.67;86.77;98656.09;6167723;23;20439;-79
2021/08/24 06:26:14;;;;;;;6.87;6.17;;;13.90;85.70;;;12.75;86.65;98650.41;6167937;23;20392;-79
2021/08/24 06:29:01;;;;;;;6.90;6.30;;;13.90;85.90;;;12.82;86.82;98658.53;6158628;23;20400;-79
2021/08/24 06:31:52;;;;;;;6.23;5.63;;;13.90;86.10;;;13.02;86.40;98665.75;6167435;23;20437;-79
2021/08/24 06:34:41;;;;;;;7.80;6.40;;;14.00;85.80;;;13.17;85.43;98665.47;6156682;23;20389;-79
2021/08/24 06:37:29;;;;;;;5.70;5.30;;;14.10;85.20;;;13.32;84.14;98679.59;6154683;23;20440;-78
2021/08/24 06:40:18;;;;;;;6.57;6.03;;;14.40;84.00;;;13.34;84.51;98667.69;6155781;23;20393;-79
2021/08/24 06:43:06;;;;;;;7.07;6.40;;;14.40;84.10;;;13.41;83.70;98676.59;6154442;23;20397;-79
2021/08/24 06:45:54;;;;;;;6.67;6.07;;;14.50;83.50;;;13.58;83.31;98668.81;6154767;23;20407;-78
2021/08/24 06:48:42;;;;;;;6.33;5.40;;;14.60;83.30;;;13.48;83.69;98677.44;6150272;23;20395;-77
2021/08/24 06:51:29;;;;;;;7.00;6.30;;;14.50;83.30;;;13.45;84.05;98670.56;6150926;23;20960;-75
2021/08/24 06:54:17;;;;;;;7.03;6.30;;;14.50;83.20;;;13.57;82.86;98676.16;6151675;23;20424;-76
2021/08/24 06:57:06;;;;;;;6.90;6.20;;;14.60;82.80;;;13.51;83.69;98679.72;6153276;23;20520;-77
2021/08/24 06:59:54;;;;;;;5.60;5.00;;;14.50;83.10;;;13.37;83.97;98672.66;6151487;23;20431;-76
2021/08/24 07:02:42;;;;;;;6.80;6.10;;;14.50;83.00;;;13.50;83.52;98666.38;6151292;23;20401;-76
2021/08/24 07:05:31;;;;;;;6.80;6.20;;;14.60;83.00;;;13.56;83.40;98671.72;6151626;23;20483;-76
2021/08/24 07:08:19;;;;;;;6.83;5.87;;;14.60;83.10;;;13.59;84.01;98676.75;6153719;23;20432;-78
2021/08/24 07:11:06;;;;;;;8.00;5.87;;;14.70;83.40;;;13.69;82.90;98680.84;6153026;23;20540;-75
2021/08/24 07:13:56;;;;;;;6.43;5.77;;;14.80;82.60;;;13.62;83.22;98674.66;6151256;23;20490;-76
2021/08/24 07:16:46;;;;;;;6.53;5.37;;;14.70;82.60;;;13.50;83.70;98677.22;6154312;23;20440;-75
2021/08/24 07:19:33;;;;;;;6.27;5.73;;;14.60;82.80;;;13.51;84.32;98668.84;6162904;23;20437;-76
2021/08/24 07:22:21;;;;;;;7.40;5.67;;;14.60;83.30;;;13.76;83.11;98680.81;6164647;23;20423;-77
2021/08/24 07:25:12;;;;;;;6.47;5.50;;;14.80;82.70;;;13.56;84.18;98688.03;6153417;23;20415;-76
2021/08/24 07:28:00;;;;;;;6.10;5.50;;;14.70;83.00;;;13.52;84.84;98691.41;6154598;23;20436;-76
2021/08/24 07:30:49;;;;;;;6.03;5.43;;;14.70;83.50;;;13.77;83.36;98688.75;6151617;23;20483;-77
2021/08/24 07:33:38;;;;;;;6.43;5.50;;;14.80;83.20;;;13.72;83.78;98693.97;6152797;23;20409;-77
2021/08/24 07:36:26;;;;;;;7.70;6.80;;;14.80;83.10;;;13.80;83.16;98682.88;6155622;23;20399;-76
2021/08/24 07:39:13;;;;;;;8.17;6.73;;;14.90;82.80;;;13.84;83.42;98684.06;6166410;23;20483;-77
2021/08/24 07:42:00;;;;;;;6.83;6.23;;;14.90;82.80;;;13.96;83.24;98680.66;6156190;23;20397;-77
2021/08/24 07:44:48;;;;;;;6.97;6.33;;;14.90;82.60;;;14.07;82.25;98689.97;6162447;23;20459;-76
2021/08/24 07:47:35;;;;;;;10.00;7.27;;;15.10;82.20;;;14.15;82.85;98695.94;6166429;23;20419;-77
2021/08/24 07:50:24;;;;;;;7.20;6.50;;;15.20;82.30;;;14.64;80.68;98691.75;6166947;23;20422;-78
2021/08/24 07:53:12;;;;;;;6.93;5.90;;;15.50;81.80;;;14.89;80.19;98683.53;6157958;23;20404;-77
2021/08/24 07:56:01;;;;;;;6.10;5.10;;;15.80;81.00;;;15.36;77.26;98693.84;6149932;23;20483;-76
2021/08/24 07:58:49;;;;;;;6.43;5.90;;;16.20;79.20;;;15.60;76.30;98688.47;6150802;23;20404;-76
2021/08/24 08:01:36;;;;;;;6.13;5.53;;;16.50;77.90;;;15.76;75.43;98688.88;6150809;23;20861;-77
2021/08/24 08:04:25;;;;;;;6.57;5.97;;;16.70;76.80;;;16.34;74.57;98692.78;6161024;23;20403;-78
2021/08/24 08:07:15;;;;;;;8.17;5.63;;;17.20;76.10;;;16.56;72.88;98698.47;6157259;23;20728;-76
2021/08/24 08:10:02;;;;;;;6.77;6.10;;;17.50;74.30;;;16.41;73.32;98701.66;6161907;23;20393;-77
2021/08/24 08:12:50;;;;;;;8.40;6.47;;;17.60;73.60;;;16.79;71.18;98704.16;6150995;23;20544;-78
2021/08/24 08:15:38;;;;;;;6.00;5.43;;;17.70;72.40;;;17.13;70.81;98709.81;6152507;23;21100;-76
2021/08/24 08:18:25;;;;;;;6.93;6.27;;;18.00;72.10;;;17.36;69.63;98702.59;6149729;23;20455;-76
2021/08/24 08:21:13;;;;;;;6.40;5.70;;;18.20;71.50;;;17.39;69.58;98711.13;6152614;23;20494;-77
2021/08/24 08:24:01;;;;;;;6.10;5.50;;;18.30;70.60;;;17.38;69.50;98684.09;6152627;23;20396;-76
2021/08/24 08:26:49;;;;;;;5.53;4.83;;;18.30;70.40;;;18.25;66.22;98711.28;6155791;23;20414;-77
2021/08/24 08:29:36;;;;;;;6.53;5.80;;;19.00;69.10;;;18.09;65.53;98689.16;6152805;23;20495;-76
2021/08/24 08:32:28;;;;;;;6.23;5.70;;;19.10;67.70;;;18.19;66.87;98715.03;6152513;23;20527;-77
2021/08/24 08:35:19;;;;;;;11.53;5.60;;;19.20;68.10;;;18.38;65.80;98712.88;6151712;23;20459;-76
2021/08/24 08:38:07;;;;;;;6.20;5.40;;;19.40;67.00;;;17.89;66.27;98699.75;6159930;23;21175;-77
2021/08/24 08:41:01;;;;;;;6.57;5.97;;;19.10;66.70;;;17.64;68.61;98714.59;6159018;23;20399;-77
2021/08/24 08:43:57;;;;;;;7.47;5.60;;;18.80;67.80;;;17.45;68.91;98712.06;6150907;23;20400;-76
2021/08/24 08:46:56;;;;;;;6.40;5.70;;;18.70;67.80;;;17.25;70.26;98702.41;6151554;23;20396;-76
2021/08/24 08:49:51;;;;;;;5.87;5.37;;;18.60;68.30;;;17.39;69.12;98704.84;6149772;23;20764;-76
2021/08/24 08:52:48;;;;;;;6.97;6.27;;;18.30;68.20;;;17.27;69.47;98710.34;6159597;23;20428;-76
2021/08/24 08:55:46;;;;;;;7.07;6.47;;;18.30;68.50;;;17.28;69.78;98701.91;6153950;23;20952;-77
2021/08/24 08:58:47;;;;;;;6.73;6.13;;;18.20;68.70;;;17.36;69.45;98711.63;6151707;23;20427;-77
2021/08/24 09:01:41;;;;;;;7.67;6.27;;;18.30;68.40;;;17.31;70.37;98707.97;6154908;23;20403;-77
2021/08/24 09:04:34;;;;;;;6.43;5.83;;;18.30;68.80;;;17.41;69.09;98700.78;6151823;23;20475;-78
2021/08/24 09:07:32;;;;;;;6.90;6.30;;;18.40;68.20;;;17.45;68.66;98706.59;6156466;23;20767;-77
2021/08/24 09:10:37;;;;;;;7.00;6.30;;;18.40;68.00;;;17.97;68.28;98707.56;6151475;23;21020;-77
2021/08/24 09:13:32;;;;;;;7.27;6.67;;;18.70;68.50;;;18.59;65.41;98697.59;6152159;23;20396;-79
2021/08/24 09:16:30;;;;;;;7.07;6.47;;;19.30;67.50;;;18.51;64.18;98698.03;6156324;23;20440;-79
2021/08/24 09:19:24;;;;;;;7.23;6.60;;;19.60;65.70;;;18.31;65.30;98691.16;6154402;23;20404;-79
2021/08/24 09:22:16;;;;;;;7.33;6.73;;;19.20;66.20;;;18.37;66.21;98698.38;6165537;23;20435;-78
2021/08/24 09:25:07;;;;;;;6.83;6.17;;;19.30;66.70;;;18.47;65.22;98696.88;6154641;23;20415;-78
2021/08/24 09:28:02;;;;;;;8.27;6.95;;;19.40;66.20;;;18.97;64.54;98704.13;6152913;23;20413;-76
2021/08/24 09:30:50;;;;;;;9.30;6.40;;;19.80;66.50;;;19.20;63.62;98702.25;6159306;23;20203;-77
2021/08/24 09:33:39;;;;;;;12.37;6.17;;;20.00;65.90;;;19.70;62.00;98694.03;6160760;23;20397;-77
2021/08/24 09:36:26;;;;;;;7.37;6.63;;;20.40;65.10;;;19.29;61.71;98682.63;6161568;23;20479;-80
2021/08/24 09:39:15;;;;;;;9.40;6.57;;;20.40;64.20;;;19.28;62.79;98698.25;6159190;23;20397;-79
2021/08/24 09:42:09;;;;;;;7.60;6.90;;;20.30;64.30;;;19.19;62.31;98692.41;6155310;23;20405;-79
2021/08/24 09:45:00;;;;;;;7.17;6.57;;;20.00;64.00;;;19.66;61.64;98687.41;6167815;23;20768;-79
2021/08/24 09:47:54;;;;;;;7.07;6.37;;;20.30;64.30;;;19.45;62.10;98681.69;6155380;23;20404;-79
2021/08/24 09:50:45;;;;;;;8.33;7.63;;;20.40;64.00;;;19.81;60.61;98686.72;6158038;23;20896;-79
2021/08/24 09:53:37;;;;;;;6.30;5.80;;;20.70;63.30;;;19.23;60.10;98586.72;6155040;23;20400;-80
2021/08/24 09:56:28;;;;;;;6.83;6.23;;;20.90;63.10;;;19.12;62.84;98678.06;6174969;23;20435;-79
2021/08/24 09:59:26;;;;;;;7.27;6.60;;;20.20;63.60;;;18.66;64.80;98676.34;6168916;23;20440;-79
2021/08/24 10:02:38;;;;;;;7.40;6.80;;;19.90;64.70;;;18.23;65.37;98688.84;6174441;23;20403;-79
2021/08/24 10:05:45;;;;;;;6.87;6.27;;;19.40;64.60;;;18.20;66.18;98686.59;6176511;23;20385;-79
2021/08/24 10:08:36;;;;;;;7.40;6.63;;;19.20;65.40;;;18.31;66.50;98691.16;6166717;23;20516;-78
2021/08/24 10:11:32;;;;;;;6.90;6.30;;;19.30;65.70;;;18.46;66.10;98696.03;6168468;23;20393;-79
2021/08/24 10:14:22;;;;;;;7.07;6.40;;;19.30;65.70;;;18.58;65.74;98706.06;6158235;23;20396;-79
2021/08/24 10:17:22;;;;;;;7.50;6.80;;;19.40;65.50;;;18.83;64.71;98698.22;6156232;23;20852;-78
2021/08/24 10:20:25;;;;;;;7.60;6.60;;;19.60;65.30;;;18.95;63.80;98683.56;6155673;23;20471;-79
2021/08/24 10:23:22;;;;;;;7.40;6.80;;;19.90;64.70;;;18.80;64.45;98697.88;6157067;23;21279;-79
2021/08/24 10:26:22;;;;;;;7.53;6.87;;;19.80;64.80;;;18.87;63.75;98701.25;6167130;23;20459;-79
2021/08/24 10:29:15;;;;;;;7.70;6.63;;;19.80;64.40;;;19.14;63.46;98691.50;6155421;23;20429;-78
2021/08/24 10:32:07;;;;;;;6.20;5.80;;;19.90;64.50;;;19.45;61.81;98681.69;6156494;23;20952;-79
2021/08/24 10:34:56;;;;;;;8.30;7.50;;;20.20;63.90;;;19.59;62.11;98700.47;6155053;23;20443;-79
2021/08/24 10:37:47;;;;;;;6.60;6.07;;;20.40;63.80;;;19.35;63.25;98696.13;6165423;23;20514;-79
2021/08/24 10:40:45;;;;;;;8.07;7.27;;;20.40;64.10;;;18.74;64.88;98696.16;6159016;23;20476;-79
2021/08/24 10:43:32;;;;;;;7.50;7.00;;;19.80;64.30;;;18.68;65.04;98700.72;6171751;23;20392;-78
2021/08/24 10:46:23;;;;;;;7.80;7.10;;;19.70;64.60;;;18.39;65.45;98692.66;6178588;23;20408;-81
2021/08/24 10:49:11;;;;;;;8.33;6.43;;;19.50;64.80;;;18.30;65.89;98703.19;6147790;23;20396;-80
2021/08/24 10:52:10;;;;;;;7.53;6.90;;;19.30;64.80;;;18.12;67.61;98713.31;6175302;23;20464;-78
2021/08/24 10:55:09;;;;;;;8.70;7.80;;;19.10;65.50;;;18.25;67.22;98706.66;6162807;23;20412;-77
2021/08/24 10:58:06;;;;;;;8.30;6.83;;;19.20;65.60;;;18.14;66.02;98710.31;6156750;23;20420;-77
2021/08/24 11:01:01;;;;;;;7.90;7.30;;;19.10;64.90;;;18.02;66.11;98715.84;6154354;23;20884;-78
2021/08/24 11:04:06;;;;;;;7.73;7.03;;;19.00;64.70;;;18.25;65.92;98708.56;6152486;23;20397;-78
2021/08/24 11:07:06;;;;;;;7.63;6.93;;;19.00;65.00;;;18.70;63.78;98712.25;6154781;23;20898;-80
2021/08/24 11:09:57;;;;;;;8.13;6.43;;;19.50;64.80;;;19.23;62.68;98690.78;6158873;23;20396;-81
2021/08/24 11:13:00;;;;;;;6.80;6.17;;;20.00;64.30;;;19.93;59.11;98703.03;6157525;23;20392;-80
2021/08/24 11:15:56;;;;;;;7.10;6.50;;;20.70;62.40;;;19.95;58.71;98700.88;6157190;23;20392;-80
2021/08/24 11:18:52;;;;;;;6.53;6.03;;;20.70;62.00;;;19.86;59.11;98708.69;6158240;23;20420;-79
2021/08/24 11:21:47;;;;;;;8.00;7.30;;;20.60;61.60;;;19.70;59.54;98705.00;6160001;23;20401;-80
2021/08/24 11:24:57;;;;;;;6.30;5.70;;;20.70;61.60;;;19.51;59.27;98707.25;6157206;23;20404;-80
2021/08/24 11:27:52;;;;;;;6.53;5.90;;;20.60;60.90;;;19.52;58.85;98707.00;6162316;23;20399;-80
2021/08/24 11:30:45;;;;;;;6.27;5.77;;;20.50;60.90;;;19.40;59.07;98711.78;6155509;23;20420;-79
2021/08/24 11:33:40;;;;;;;5.87;5.37;;;20.40;60.70;;;19.61;57.81;98707.38;6156373;23;20407;-80
2021/08/24 11:36:35;;;;;;;6.70;6.17;;;20.50;60.40;;;20.02;57.07;98706.97;6139094;23;20396;-80
2021/08/24 11:39:31;;;;;;;6.97;6.37;;;20.80;60.40;;;20.39;56.89;98710.81;6158961;23;20428;-80
2021/08/24 11:42:28;;;;;;;6.00;5.50;;;21.20;60.70;;;19.93;55.29;98719.47;6168594;23;20388;-80
2021/08/24 11:45:21;;;;;;;6.03;5.60;;;20.90;58.90;;;19.63;58.07;98705.19;6154131;23;20397;-78
2021/08/24 11:48:17;;;;;;;6.17;5.23;;;20.50;59.90;;;19.48;57.52;98714.06;6155187;23;20503;-79
2021/08/24 11:51:11;;;;;;;5.50;5.00;;;20.50;59.30;;;19.37;58.53;98706.84;6152597;23;20953;-80
2021/08/24 11:54:13;;;;;;;6.40;5.53;;;20.40;59.70;;;19.50;58.80;98706.44;6155835;23;20488;-79
2021/08/24 11:57:08;;;;;;;6.53;6.00;;;20.30;60.00;;;19.41;58.27;98699.75;6155663;23;20486;-79
2021/08/24 11:59:57;;;;;;;6.37;5.87;;;20.40;59.70;;;19.89;56.28;98699.13;6156267;23;20401;-80
2021/08/24 12:02:52;;;;;;;7.03;6.33;;;20.70;59.30;;;20.12;56.39;98699.91;6158126;23;21037;-80